sensor_id;sensor_type;location;lat;lon;timestamp;temperature;humidity
5061;DHT22;2549;52.128;21.068;2023-02-01T00:01:06;6.50;99.90
5061;DHT22;2549;52.128;21.068;2023-02-01T00:03:33;6.60;99.90
5061;DHT22;2549;52.128;21.068;2023-02-01T00:06:00;6.70;99.90
5061;DHT22;2549;52.128;21.068;2023-02-01T00:08:27;6.70;99.90
5061;DHT22;2549;52.128;21.068;2023-02-01T00:11:04;6.70;99.90
5061;DHT22;2549;52.128;21.068;2023-02-01T00:13:33;6.80;99.90
5061;DHT22;2549;52.128;21.068;2023-02-01T00:16:10;6.80;99.90
5061;DHT22;2549;52.128;21.068;2023-02-01T00:18:37;6.70;99.90
5061;DHT22;2549;52.128;21.068;2023-02-01T00:21:04;6.80;99.90
5061;DHT22;2549;52.128;21.068;2023-02-01T00:23:35;6.80;99.90
5061;DHT22;2549;52.128;21.068;2023-02-01T00:26:06;6.90;99.90
5061;DHT22;2549;52.128;21.068;2023-02-01T00:28:34;6.80;99.90
5061;DHT22;2549;52.128;21.068;2023-02-01T00:31:03;6.80;99.90
5061;DHT22;2549;52.128;21.068;2023-02-01T00:33:32;6.80;99.90
5061;DHT22;2549;52.128;21.068;2023-02-01T00:36:00;6.80;99.90
5061;DHT22;2549;52.128;21.068;2023-02-01T00:38:29;6.80;99.90
5061;DHT22;2549;52.128;21.068;2023-02-01T00:41:07;6.90;99.90
5061;DHT22;2549;52.128;21.068;2023-02-01T00:43:36;6.80;99.90
5061;DHT22;2549;52.128;21.068;2023-02-01T00:46:02;6.80;99.90
5061;DHT22;2549;52.128;21.068;2023-02-01T00:48:29;6.80;99.90
5061;DHT22;2549;52.128;21.068;2023-02-01T00:51:01;6.90;99.90
5061;DHT22;2549;52.128;21.068;2023-02-01T00:53:28;6.90;99.90
5061;DHT22;2549;52.128;21.068;2023-02-01T00:55:55;7.00;99.90
5061;DHT22;2549;52.128;21.068;2023-02-01T00:58:23;6.90;99.90
5061;DHT22;2549;52.128;21.068;2023-02-01T01:01:15;7.00;99.90
5061;DHT22;2549;52.128;21.068;2023-02-01T01:03:44;6.90;99.90
5061;DHT22;2549;52.128;21.068;2023-02-01T01:06:14;6.80;99.90
5061;DHT22;2549;52.128;21.068;2023-02-01T01:08:42;6.70;99.90
5061;DHT22;2549;52.128;21.068;2023-02-01T01:11:11;6.80;99.90
5061;DHT22;2549;52.128;21.068;2023-02-01T01:13:38;6.70;99.90
5061;DHT22;2549;52.128;21.068;2023-02-01T01:16:07;6.70;99.90
5061;DHT22;2549;52.128;21.068;2023-02-01T01:18:34;6.70;99.90
5061;DHT22;2549;52.128;21.068;2023-02-01T01:21:03;6.80;99.90
5061;DHT22;2549;52.128;21.068;2023-02-01T01:23:30;6.80;99.90
5061;DHT22;2549;52.128;21.068;2023-02-01T01:25:57;6.90;99.90
5061;DHT22;2549;52.128;21.068;2023-02-01T01:28:24;6.90;99.90
5061;DHT22;2549;52.128;21.068;2023-02-01T01:30:51;6.90;99.90
5061;DHT22;2549;52.128;21.068;2023-02-01T01:33:18;6.90;99.90
5061;DHT22;2549;52.128;21.068;2023-02-01T01:35:44;7.00;99.90
5061;DHT22;2549;52.128;21.068;2023-02-01T01:38:11;6.90;99.90
5061;DHT22;2549;52.128;21.068;2023-02-01T01:40:38;6.90;99.90
5061;DHT22;2549;52.128;21.068;2023-02-01T01:43:14;6.80;99.90
5061;DHT22;2549;52.128;21.068;2023-02-01T01:45:41;6.80;99.90
5061;DHT22;2549;52.128;21.068;2023-02-01T01:48:20;6.80;99.90
5061;DHT22;2549;52.128;21.068;2023-02-01T01:50:52;6.80;99.90
5061;DHT22;2549;52.128;21.068;2023-02-01T01:53:29;6.80;99.90
5061;DHT22;2549;52.128;21.068;2023-02-01T01:55:58;6.80;99.90
5061;DHT22;2549;52.128;21.068;2023-02-01T01:58:27;6.80;99.90
5061;DHT22;2549;52.128;21.068;2023-02-01T02:00:55;6.80;99.90
5061;DHT22;2549;52.128;21.068;2023-02-01T02:03:27;6.90;99.90
5061;DHT22;2549;52.128;21.068;2023-02-01T02:05:57;6.90;99.90
5061;DHT22;2549;52.128;21.068;2023-02-01T02:08:26;6.80;99.90
5061;DHT22;2549;52.128;21.068;2023-02-01T02:10:53;6.80;99.90
5061;DHT22;2549;52.128;21.068;2023-02-01T02:13:38;6.70;99.90
5061;DHT22;2549;52.128;21.068;2023-02-01T02:16:53;6.60;99.90
5061;DHT22;2549;52.128;21.068;2023-02-01T02:30:52;6.80;99.90
5061;DHT22;2549;52.128;21.068;2023-02-01T02:39:16;6.70;99.90
5061;DHT22;2549;52.128;21.068;2023-02-01T02:42:17;6.70;99.90
5061;DHT22;2549;52.128;21.068;2023-02-01T02:45:22;6.70;99.90
5061;DHT22;2549;52.128;21.068;2023-02-01T02:51:24;6.80;99.90
5061;DHT22;2549;52.128;21.068;2023-02-01T02:54:17;6.80;99.90
5061;DHT22;2549;52.128;21.068;2023-02-01T02:57:07;6.80;99.90
5061;DHT22;2549;52.128;21.068;2023-02-01T02:59:53;6.80;99.90
5061;DHT22;2549;52.128;21.068;2023-02-01T03:02:41;6.80;99.90
5061;DHT22;2549;52.128;21.068;2023-02-01T03:05:33;6.80;99.90
5061;DHT22;2549;52.128;21.068;2023-02-01T03:10:51;6.80;99.90
5061;DHT22;2549;52.128;21.068;2023-02-01T03:19:04;6.80;99.90
5061;DHT22;2549;52.128;21.068;2023-02-01T03:24:40;6.80;99.90
5061;DHT22;2549;52.128;21.068;2023-02-01T03:29:41;6.80;99.90
5061;DHT22;2549;52.128;21.068;2023-02-01T03:32:11;6.70;99.90
5061;DHT22;2549;52.128;21.068;2023-02-01T03:34:38;6.70;99.90
5061;DHT22;2549;52.128;21.068;2023-02-01T03:37:09;6.70;99.90
5061;DHT22;2549;52.128;21.068;2023-02-01T03:39:47;6.70;99.90
5061;DHT22;2549;52.128;21.068;2023-02-01T03:47:35;6.80;99.90
5061;DHT22;2549;52.128;21.068;2023-02-01T03:50:09;6.80;99.90
5061;DHT22;2549;52.128;21.068;2023-02-01T03:52:46;6.80;99.90
5061;DHT22;2549;52.128;21.068;2023-02-01T03:55:16;6.70;99.90
5061;DHT22;2549;52.128;21.068;2023-02-01T03:57:46;6.70;99.90
5061;DHT22;2549;52.128;21.068;2023-02-01T04:00:22;6.70;99.90
5061;DHT22;2549;52.128;21.068;2023-02-01T04:02:51;6.60;99.90
5061;DHT22;2549;52.128;21.068;2023-02-01T04:05:18;6.70;99.90
5061;DHT22;2549;52.128;21.068;2023-02-01T04:07:45;6.70;99.90
5061;DHT22;2549;52.128;21.068;2023-02-01T04:10:13;6.80;99.90
5061;DHT22;2549;52.128;21.068;2023-02-01T04:12:40;6.80;99.90
5061;DHT22;2549;52.128;21.068;2023-02-01T04:15:07;6.80;99.90
5061;DHT22;2549;52.128;21.068;2023-02-01T04:17:34;6.80;99.90
5061;DHT22;2549;52.128;21.068;2023-02-01T04:20:01;6.80;99.90
5061;DHT22;2549;52.128;21.068;2023-02-01T04:22:27;6.80;99.90
5061;DHT22;2549;52.128;21.068;2023-02-01T04:24:55;6.80;99.90
5061;DHT22;2549;52.128;21.068;2023-02-01T04:27:22;6.80;99.90
5061;DHT22;2549;52.128;21.068;2023-02-01T04:29:49;6.80;99.90
5061;DHT22;2549;52.128;21.068;2023-02-01T04:32:18;6.80;99.90
5061;DHT22;2549;52.128;21.068;2023-02-01T04:34:46;6.80;99.90
5061;DHT22;2549;52.128;21.068;2023-02-01T04:37:13;6.80;99.90
5061;DHT22;2549;52.128;21.068;2023-02-01T04:39:39;6.90;99.90
5061;DHT22;2549;52.128;21.068;2023-02-01T04:42:06;6.80;99.90
5061;DHT22;2549;52.128;21.068;2023-02-01T04:44:33;6.80;99.90
5061;DHT22;2549;52.128;21.068;2023-02-01T04:47:00;6.80;99.90
5061;DHT22;2549;52.128;21.068;2023-02-01T04:49:27;6.80;99.90
5061;DHT22;2549;52.128;21.068;2023-02-01T04:51:54;6.80;99.90
5061;DHT22;2549;52.128;21.068;2023-02-01T04:54:21;6.80;99.90
5061;DHT22;2549;52.128;21.068;2023-02-01T04:56:47;6.70;99.90
5061;DHT22;2549;52.128;21.068;2023-02-01T04:59:14;6.80;99.90
5061;DHT22;2549;52.128;21.068;2023-02-01T05:01:41;6.80;99.90
5061;DHT22;2549;52.128;21.068;2023-02-01T05:04:08;6.90;99.90
5061;DHT22;2549;52.128;21.068;2023-02-01T05:06:35;6.90;99.90
5061;DHT22;2549;52.128;21.068;2023-02-01T05:09:01;6.90;99.90
5061;DHT22;2549;52.128;21.068;2023-02-01T05:11:28;6.90;99.90
5061;DHT22;2549;52.128;21.068;2023-02-01T05:14:13;6.90;99.90
5061;DHT22;2549;52.128;21.068;2023-02-01T05:16:40;6.80;99.90
5061;DHT22;2549;52.128;21.068;2023-02-01T05:19:07;6.70;99.90
5061;DHT22;2549;52.128;21.068;2023-02-01T05:21:34;6.80;99.90
5061;DHT22;2549;52.128;21.068;2023-02-01T05:24:01;6.80;99.90
5061;DHT22;2549;52.128;21.068;2023-02-01T05:26:37;6.70;99.90
5061;DHT22;2549;52.128;21.068;2023-02-01T05:29:05;6.80;99.90
5061;DHT22;2549;52.128;21.068;2023-02-01T05:31:32;6.80;99.90
5061;DHT22;2549;52.128;21.068;2023-02-01T05:33:59;6.90;99.90
5061;DHT22;2549;52.128;21.068;2023-02-01T05:36:26;6.90;99.90
5061;DHT22;2549;52.128;21.068;2023-02-01T05:38:53;6.90;99.90
5061;DHT22;2549;52.128;21.068;2023-02-01T05:41:20;6.90;99.90
5061;DHT22;2549;52.128;21.068;2023-02-01T05:43:47;7.00;99.90
5061;DHT22;2549;52.128;21.068;2023-02-01T05:46:13;7.00;99.90
5061;DHT22;2549;52.128;21.068;2023-02-01T05:48:41;7.00;99.90
5061;DHT22;2549;52.128;21.068;2023-02-01T05:51:09;6.90;99.90
5061;DHT22;2549;52.128;21.068;2023-02-01T05:53:36;6.90;99.90
5061;DHT22;2549;52.128;21.068;2023-02-01T05:56:03;7.00;99.90
5061;DHT22;2549;52.128;21.068;2023-02-01T05:58:30;6.90;99.90
5061;DHT22;2549;52.128;21.068;2023-02-01T06:01:01;6.90;99.90
5061;DHT22;2549;52.128;21.068;2023-02-01T06:03:28;6.90;99.90
5061;DHT22;2549;52.128;21.068;2023-02-01T06:05:55;6.90;99.90
5061;DHT22;2549;52.128;21.068;2023-02-01T06:08:22;6.90;99.90
5061;DHT22;2549;52.128;21.068;2023-02-01T06:11:01;6.90;99.90
5061;DHT22;2549;52.128;21.068;2023-02-01T06:13:28;6.90;99.90
5061;DHT22;2549;52.128;21.068;2023-02-01T06:15:55;6.90;99.90
5061;DHT22;2549;52.128;21.068;2023-02-01T06:18:24;6.80;99.90
5061;DHT22;2549;52.128;21.068;2023-02-01T06:20:56;6.80;99.90
5061;DHT22;2549;52.128;21.068;2023-02-01T06:23:23;6.90;99.90
5061;DHT22;2549;52.128;21.068;2023-02-01T06:25:52;7.00;99.90
5061;DHT22;2549;52.128;21.068;2023-02-01T06:28:19;6.90;99.90
5061;DHT22;2549;52.128;21.068;2023-02-01T06:30:46;6.90;99.90
5061;DHT22;2549;52.128;21.068;2023-02-01T06:33:14;6.90;99.90
5061;DHT22;2549;52.128;21.068;2023-02-01T06:35:43;6.80;99.90
5061;DHT22;2549;52.128;21.068;2023-02-01T06:38:11;6.80;99.90
5061;DHT22;2549;52.128;21.068;2023-02-01T06:40:38;6.80;99.90
5061;DHT22;2549;52.128;21.068;2023-02-01T06:43:05;6.80;99.90
5061;DHT22;2549;52.128;21.068;2023-02-01T06:45:32;6.90;99.90
5061;DHT22;2549;52.128;21.068;2023-02-01T06:47:59;6.90;99.90
5061;DHT22;2549;52.128;21.068;2023-02-01T06:50:29;6.90;99.90
5061;DHT22;2549;52.128;21.068;2023-02-01T06:52:56;6.90;99.90
5061;DHT22;2549;52.128;21.068;2023-02-01T06:55:23;6.90;99.90
5061;DHT22;2549;52.128;21.068;2023-02-01T06:57:53;6.80;99.90
5061;DHT22;2549;52.128;21.068;2023-02-01T07:00:22;6.90;99.90
5061;DHT22;2549;52.128;21.068;2023-02-01T07:02:50;7.00;99.90
5061;DHT22;2549;52.128;21.068;2023-02-01T07:05:16;7.00;99.90
5061;DHT22;2549;52.128;21.068;2023-02-01T07:07:44;6.90;99.90
5061;DHT22;2549;52.128;21.068;2023-02-01T07:10:11;6.80;99.90
5061;DHT22;2549;52.128;21.068;2023-02-01T07:12:38;6.80;99.90
5061;DHT22;2549;52.128;21.068;2023-02-01T07:15:06;6.90;99.90
5061;DHT22;2549;52.128;21.068;2023-02-01T07:17:33;6.90;99.90
5061;DHT22;2549;52.128;21.068;2023-02-01T07:20:00;7.00;99.90
5061;DHT22;2549;52.128;21.068;2023-02-01T07:22:28;7.00;99.90
5061;DHT22;2549;52.128;21.068;2023-02-01T07:24:55;7.00;99.90
5061;DHT22;2549;52.128;21.068;2023-02-01T07:27:22;7.00;99.90
5061;DHT22;2549;52.128;21.068;2023-02-01T07:29:51;7.00;99.90
5061;DHT22;2549;52.128;21.068;2023-02-01T07:32:19;7.10;99.90
5061;DHT22;2549;52.128;21.068;2023-02-01T07:34:45;7.10;99.90
5061;DHT22;2549;52.128;21.068;2023-02-01T07:37:12;7.10;99.90
5061;DHT22;2549;52.128;21.068;2023-02-01T07:39:39;7.10;99.90
5061;DHT22;2549;52.128;21.068;2023-02-01T07:42:06;7.10;99.80
5061;DHT22;2549;52.128;21.068;2023-02-01T07:44:33;7.10;99.60
5061;DHT22;2549;52.128;21.068;2023-02-01T07:47:00;7.20;99.70
5061;DHT22;2549;52.128;21.068;2023-02-01T07:49:26;7.20;99.50
5061;DHT22;2549;52.128;21.068;2023-02-01T07:51:53;7.10;99.90
5061;DHT22;2549;52.128;21.068;2023-02-01T07:54:20;7.10;99.90
5061;DHT22;2549;52.128;21.068;2023-02-01T07:56:47;7.10;99.70
5061;DHT22;2549;52.128;21.068;2023-02-01T07:59:14;7.10;99.90
5061;DHT22;2549;52.128;21.068;2023-02-01T08:01:41;7.20;99.90
5061;DHT22;2549;52.128;21.068;2023-02-01T08:04:11;7.10;99.90
5061;DHT22;2549;52.128;21.068;2023-02-01T08:06:39;7.10;99.90
5061;DHT22;2549;52.128;21.068;2023-02-01T08:09:07;7.10;99.90
5061;DHT22;2549;52.128;21.068;2023-02-01T08:11:37;7.20;99.90
5061;DHT22;2549;52.128;21.068;2023-02-01T08:14:05;7.20;99.90
5061;DHT22;2549;52.128;21.068;2023-02-01T08:16:34;7.20;99.90
5061;DHT22;2549;52.128;21.068;2023-02-01T08:19:02;7.20;99.90
5061;DHT22;2549;52.128;21.068;2023-02-01T08:21:29;7.10;99.90
5061;DHT22;2549;52.128;21.068;2023-02-01T08:24:06;7.10;99.90
5061;DHT22;2549;52.128;21.068;2023-02-01T08:26:34;7.00;99.90
5061;DHT22;2549;52.128;21.068;2023-02-01T08:29:04;7.10;99.90
5061;DHT22;2549;52.128;21.068;2023-02-01T08:31:32;7.20;99.90
5061;DHT22;2549;52.128;21.068;2023-02-01T08:34:01;7.30;99.90
5061;DHT22;2549;52.128;21.068;2023-02-01T08:36:31;7.10;99.90
5061;DHT22;2549;52.128;21.068;2023-02-01T08:38:58;7.20;99.90
5061;DHT22;2549;52.128;21.068;2023-02-01T08:41:28;7.20;99.90
5061;DHT22;2549;52.128;21.068;2023-02-01T08:43:56;7.30;99.90
5061;DHT22;2549;52.128;21.068;2023-02-01T08:46:23;7.30;99.90
5061;DHT22;2549;52.128;21.068;2023-02-01T08:48:50;7.20;99.90
5061;DHT22;2549;52.128;21.068;2023-02-01T08:51:19;7.20;99.90
5061;DHT22;2549;52.128;21.068;2023-02-01T08:53:46;7.20;99.90
5061;DHT22;2549;52.128;21.068;2023-02-01T08:56:15;7.20;99.90
5061;DHT22;2549;52.128;21.068;2023-02-01T08:58:43;7.20;99.90
5061;DHT22;2549;52.128;21.068;2023-02-01T09:01:13;7.30;99.90
5061;DHT22;2549;52.128;21.068;2023-02-01T09:03:40;7.30;99.90
5061;DHT22;2549;52.128;21.068;2023-02-01T09:06:11;7.40;99.90
5061;DHT22;2549;52.128;21.068;2023-02-01T09:08:39;7.40;99.90
5061;DHT22;2549;52.128;21.068;2023-02-01T09:11:11;7.50;99.90
5061;DHT22;2549;52.128;21.068;2023-02-01T09:13:38;7.40;99.90
5061;DHT22;2549;52.128;21.068;2023-02-01T09:16:05;7.50;99.90
5061;DHT22;2549;52.128;21.068;2023-02-01T09:18:32;7.40;99.70
5061;DHT22;2549;52.128;21.068;2023-02-01T09:20:59;7.40;99.70
5061;DHT22;2549;52.128;21.068;2023-02-01T09:23:29;7.40;99.40
5061;DHT22;2549;52.128;21.068;2023-02-01T09:26:01;7.40;99.50
5061;DHT22;2549;52.128;21.068;2023-02-01T09:28:27;7.50;99.30
5061;DHT22;2549;52.128;21.068;2023-02-01T09:30:58;7.40;99.10
5061;DHT22;2549;52.128;21.068;2023-02-01T09:33:27;7.40;99.30
5061;DHT22;2549;52.128;21.068;2023-02-01T09:35:59;7.50;99.50
5061;DHT22;2549;52.128;21.068;2023-02-01T09:38:26;7.50;99.30
5061;DHT22;2549;52.128;21.068;2023-02-01T09:40:55;7.50;99.20
5061;DHT22;2549;52.128;21.068;2023-02-01T09:43:41;7.60;99.30
5061;DHT22;2549;52.128;21.068;2023-02-01T09:46:28;7.60;99.20
5061;DHT22;2549;52.128;21.068;2023-02-01T09:48:57;7.50;99.00
5061;DHT22;2549;52.128;21.068;2023-02-01T09:51:36;7.50;99.10
5061;DHT22;2549;52.128;21.068;2023-02-01T09:54:18;7.60;99.10
5061;DHT22;2549;52.128;21.068;2023-02-01T09:56:56;7.60;99.00
5061;DHT22;2549;52.128;21.068;2023-02-01T10:01:59;7.60;98.70
5061;DHT22;2549;52.128;21.068;2023-02-01T10:04:27;7.60;98.50
5061;DHT22;2549;52.128;21.068;2023-02-01T10:07:02;7.60;98.70
5061;DHT22;2549;52.128;21.068;2023-02-01T10:09:37;7.70;98.60
5061;DHT22;2549;52.128;21.068;2023-02-01T10:26:42;7.80;98.60
5061;DHT22;2549;52.128;21.068;2023-02-01T10:29:18;7.80;98.40
5061;DHT22;2549;52.128;21.068;2023-02-01T10:31:45;7.80;98.40
5061;DHT22;2549;52.128;21.068;2023-02-01T10:34:30;7.90;98.40
5061;DHT22;2549;52.128;21.068;2023-02-01T10:37:11;7.90;98.50
5061;DHT22;2549;52.128;21.068;2023-02-01T10:39:40;7.90;98.40
5061;DHT22;2549;52.128;21.068;2023-02-01T10:42:08;7.80;98.40
5061;DHT22;2549;52.128;21.068;2023-02-01T10:44:40;7.80;98.60
5061;DHT22;2549;52.128;21.068;2023-02-01T10:47:10;7.80;98.40
5061;DHT22;2549;52.128;21.068;2023-02-01T10:50:02;7.90;98.50
5061;DHT22;2549;52.128;21.068;2023-02-01T10:52:43;7.90;98.30
5061;DHT22;2549;52.128;21.068;2023-02-01T10:57:57;7.80;98.30
5061;DHT22;2549;52.128;21.068;2023-02-01T11:00:26;7.80;98.50
5061;DHT22;2549;52.128;21.068;2023-02-01T11:02:53;7.90;98.40
5061;DHT22;2549;52.128;21.068;2023-02-01T11:05:20;7.90;98.60
5061;DHT22;2549;52.128;21.068;2023-02-01T11:07:50;7.80;98.50
5061;DHT22;2549;52.128;21.068;2023-02-01T11:10:37;7.90;98.60
5061;DHT22;2549;52.128;21.068;2023-02-01T11:13:05;7.90;98.60
5061;DHT22;2549;52.128;21.068;2023-02-01T11:15:32;7.80;98.90
5061;DHT22;2549;52.128;21.068;2023-02-01T11:18:20;7.90;98.90
5061;DHT22;2549;52.128;21.068;2023-02-01T11:20:51;7.90;99.10
5061;DHT22;2549;52.128;21.068;2023-02-01T11:23:24;7.90;99.50
5061;DHT22;2549;52.128;21.068;2023-02-01T11:25:59;7.90;99.80
5061;DHT22;2549;52.128;21.068;2023-02-01T11:28:30;8.00;99.90
5061;DHT22;2549;52.128;21.068;2023-02-01T11:31:09;8.00;99.80
5061;DHT22;2549;52.128;21.068;2023-02-01T11:33:38;7.90;99.80
5061;DHT22;2549;52.128;21.068;2023-02-01T11:36:10;8.00;99.70
5061;DHT22;2549;52.128;21.068;2023-02-01T11:38:39;8.00;99.70
5061;DHT22;2549;52.128;21.068;2023-02-01T11:41:14;8.10;99.60
5061;DHT22;2549;52.128;21.068;2023-02-01T11:43:58;8.10;99.40
5061;DHT22;2549;52.128;21.068;2023-02-01T11:46:33;8.10;99.60
5061;DHT22;2549;52.128;21.068;2023-02-01T11:49:23;8.10;99.60
5061;DHT22;2549;52.128;21.068;2023-02-01T11:52:07;8.10;99.60
5061;DHT22;2549;52.128;21.068;2023-02-01T11:54:54;8.10;99.70
5061;DHT22;2549;52.128;21.068;2023-02-01T12:00:04;8.20;99.50
5061;DHT22;2549;52.128;21.068;2023-02-01T12:21:55;8.30;99.50
5061;DHT22;2549;52.128;21.068;2023-02-01T12:30:49;8.20;99.90
5061;DHT22;2549;52.128;21.068;2023-02-01T12:37:21;8.30;99.90
5061;DHT22;2549;52.128;21.068;2023-02-01T12:39:39;8.30;99.90
5061;DHT22;2549;52.128;21.068;2023-02-01T12:42:18;8.30;99.90
5061;DHT22;2549;52.128;21.068;2023-02-01T12:44:54;8.30;99.90
5061;DHT22;2549;52.128;21.068;2023-02-01T12:47:56;8.30;99.90
5061;DHT22;2549;52.128;21.068;2023-02-01T12:50:36;8.30;99.90
5061;DHT22;2549;52.128;21.068;2023-02-01T12:53:14;8.30;99.90
5061;DHT22;2549;52.128;21.068;2023-02-01T12:55:55;8.30;99.90
5061;DHT22;2549;52.128;21.068;2023-02-01T12:58:32;8.20;99.90
5061;DHT22;2549;52.128;21.068;2023-02-01T13:01:09;8.00;99.90
5061;DHT22;2549;52.128;21.068;2023-02-01T13:04:05;8.10;99.90
5061;DHT22;2549;52.128;21.068;2023-02-01T13:06:46;8.20;99.90
5061;DHT22;2549;52.128;21.068;2023-02-01T13:12:11;8.20;99.90
5061;DHT22;2549;52.128;21.068;2023-02-01T13:14:59;8.20;99.90
5061;DHT22;2549;52.128;21.068;2023-02-01T13:17:30;8.30;99.90
5061;DHT22;2549;52.128;21.068;2023-02-01T13:25:50;8.40;99.90
5061;DHT22;2549;52.128;21.068;2023-02-01T13:28:27;8.40;99.90
5061;DHT22;2549;52.128;21.068;2023-02-01T13:41:35;8.40;99.90
5061;DHT22;2549;52.128;21.068;2023-02-01T13:44:12;8.40;99.90
5061;DHT22;2549;52.128;21.068;2023-02-01T13:46:46;8.40;99.90
5061;DHT22;2549;52.128;21.068;2023-02-01T13:49:26;8.40;99.90
5061;DHT22;2549;52.128;21.068;2023-02-01T13:51:56;8.40;99.90
5061;DHT22;2549;52.128;21.068;2023-02-01T13:54:28;8.40;99.90
5061;DHT22;2549;52.128;21.068;2023-02-01T13:56:57;8.30;99.90
5061;DHT22;2549;52.128;21.068;2023-02-01T14:02:36;8.30;99.90
5061;DHT22;2549;52.128;21.068;2023-02-01T14:05:07;8.30;99.90
5061;DHT22;2549;52.128;21.068;2023-02-01T14:07:34;8.30;99.90
5061;DHT22;2549;52.128;21.068;2023-02-01T14:21:21;8.30;99.90
5061;DHT22;2549;52.128;21.068;2023-02-01T14:26:21;8.30;99.90
5061;DHT22;2549;52.128;21.068;2023-02-01T14:34:48;8.30;99.90
5061;DHT22;2549;52.128;21.068;2023-02-01T14:48:38;8.30;99.90
5061;DHT22;2549;52.128;21.068;2023-02-01T14:50:36;8.30;99.90
5061;DHT22;2549;52.128;21.068;2023-02-01T14:58:29;8.30;99.90
5061;DHT22;2549;52.128;21.068;2023-02-01T15:01:01;8.30;99.90
5061;DHT22;2549;52.128;21.068;2023-02-01T15:03:49;8.30;99.90
5061;DHT22;2549;52.128;21.068;2023-02-01T15:06:28;8.20;99.90
5061;DHT22;2549;52.128;21.068;2023-02-01T15:12:04;8.30;99.90
5061;DHT22;2549;52.128;21.068;2023-02-01T15:17:28;8.20;99.90
5061;DHT22;2549;52.128;21.068;2023-02-01T15:20:16;8.20;99.90
5061;DHT22;2549;52.128;21.068;2023-02-01T15:23:00;8.30;99.90
5061;DHT22;2549;52.128;21.068;2023-02-01T15:25:33;8.20;99.90
5061;DHT22;2549;52.128;21.068;2023-02-01T15:28:00;8.20;99.90
5061;DHT22;2549;52.128;21.068;2023-02-01T15:30:32;8.20;99.90
5061;DHT22;2549;52.128;21.068;2023-02-01T15:35:44;8.30;99.90
5061;DHT22;2549;52.128;21.068;2023-02-01T15:41:04;8.20;99.90
5061;DHT22;2549;52.128;21.068;2023-02-01T15:46:21;8.20;99.90
5061;DHT22;2549;52.128;21.068;2023-02-01T15:48:51;8.20;99.90
5061;DHT22;2549;52.128;21.068;2023-02-01T15:51:26;8.20;99.90
5061;DHT22;2549;52.128;21.068;2023-02-01T15:53:59;8.20;99.90
5061;DHT22;2549;52.128;21.068;2023-02-01T15:56:29;8.20;99.90
5061;DHT22;2549;52.128;21.068;2023-02-01T15:58:59;8.20;99.90
5061;DHT22;2549;52.128;21.068;2023-02-01T16:01:28;8.20;99.90
5061;DHT22;2549;52.128;21.068;2023-02-01T16:04:18;8.30;99.90
5061;DHT22;2549;52.128;21.068;2023-02-01T16:06:52;8.30;99.90
5061;DHT22;2549;52.128;21.068;2023-02-01T16:09:24;8.30;99.90
5061;DHT22;2549;52.128;21.068;2023-02-01T16:11:58;8.30;99.90
5061;DHT22;2549;52.128;21.068;2023-02-01T16:14:25;8.20;99.90
5061;DHT22;2549;52.128;21.068;2023-02-01T16:16:55;8.10;99.90
5061;DHT22;2549;52.128;21.068;2023-02-01T16:19:22;8.20;99.90
5061;DHT22;2549;52.128;21.068;2023-02-01T16:21:55;8.20;99.90
5061;DHT22;2549;52.128;21.068;2023-02-01T16:24:21;8.20;99.90
5061;DHT22;2549;52.128;21.068;2023-02-01T16:26:51;8.20;99.90
5061;DHT22;2549;52.128;21.068;2023-02-01T16:29:18;8.10;99.90
5061;DHT22;2549;52.128;21.068;2023-02-01T16:31:45;8.00;99.90
5061;DHT22;2549;52.128;21.068;2023-02-01T16:34:16;8.10;99.90
5061;DHT22;2549;52.128;21.068;2023-02-01T16:36:49;8.10;99.90
5061;DHT22;2549;52.128;21.068;2023-02-01T16:39:23;8.10;99.90
5061;DHT22;2549;52.128;21.068;2023-02-01T16:41:50;8.10;99.90
5061;DHT22;2549;52.128;21.068;2023-02-01T16:44:17;8.10;99.90
5061;DHT22;2549;52.128;21.068;2023-02-01T16:46:46;8.10;99.90
5061;DHT22;2549;52.128;21.068;2023-02-01T16:49:22;8.10;99.90
5061;DHT22;2549;52.128;21.068;2023-02-01T16:51:51;8.10;99.90
5061;DHT22;2549;52.128;21.068;2023-02-01T16:54:21;8.10;99.90
5061;DHT22;2549;52.128;21.068;2023-02-01T16:56:48;8.00;99.90
5061;DHT22;2549;52.128;21.068;2023-02-01T16:59:15;8.10;99.90
5061;DHT22;2549;52.128;21.068;2023-02-01T17:01:42;8.00;99.90
5061;DHT22;2549;52.128;21.068;2023-02-01T17:04:09;8.00;99.90
5061;DHT22;2549;52.128;21.068;2023-02-01T17:06:37;8.00;99.90
5061;DHT22;2549;52.128;21.068;2023-02-01T17:09:05;8.00;99.90
5061;DHT22;2549;52.128;21.068;2023-02-01T17:11:32;8.00;99.90
5061;DHT22;2549;52.128;21.068;2023-02-01T17:16:40;8.00;99.90
5061;DHT22;2549;52.128;21.068;2023-02-01T17:19:13;8.00;99.90
5061;DHT22;2549;52.128;21.068;2023-02-01T17:21:45;8.00;99.90
5061;DHT22;2549;52.128;21.068;2023-02-01T17:24:14;8.00;99.90
5061;DHT22;2549;52.128;21.068;2023-02-01T17:26:42;7.90;99.90
5061;DHT22;2549;52.128;21.068;2023-02-01T17:29:09;8.00;99.90
5061;DHT22;2549;52.128;21.068;2023-02-01T17:31:39;8.00;99.90
5061;DHT22;2549;52.128;21.068;2023-02-01T17:34:12;8.00;99.90
5061;DHT22;2549;52.128;21.068;2023-02-01T17:36:41;8.00;99.90
5061;DHT22;2549;52.128;21.068;2023-02-01T17:39:09;8.00;99.90
5061;DHT22;2549;52.128;21.068;2023-02-01T17:41:36;8.10;99.90
5061;DHT22;2549;52.128;21.068;2023-02-01T17:44:04;8.10;99.90
5061;DHT22;2549;52.128;21.068;2023-02-01T17:46:31;8.00;99.90
5061;DHT22;2549;52.128;21.068;2023-02-01T17:48:57;8.00;99.90
5061;DHT22;2549;52.128;21.068;2023-02-01T17:51:26;8.10;99.90
5061;DHT22;2549;52.128;21.068;2023-02-01T17:53:54;8.10;99.90
5061;DHT22;2549;52.128;21.068;2023-02-01T17:56:23;8.00;99.90
5061;DHT22;2549;52.128;21.068;2023-02-01T17:58:50;8.00;99.90
5061;DHT22;2549;52.128;21.068;2023-02-01T18:01:26;8.00;99.90
5061;DHT22;2549;52.128;21.068;2023-02-01T18:03:53;8.00;99.90
5061;DHT22;2549;52.128;21.068;2023-02-01T18:06:25;8.10;99.90
5061;DHT22;2549;52.128;21.068;2023-02-01T18:08:52;8.10;99.90
5061;DHT22;2549;52.128;21.068;2023-02-01T18:14:02;8.00;99.90
5061;DHT22;2549;52.128;21.068;2023-02-01T18:16:31;8.00;99.90
5061;DHT22;2549;52.128;21.068;2023-02-01T18:18:59;8.00;99.90
5061;DHT22;2549;52.128;21.068;2023-02-01T18:21:40;8.00;99.80
5061;DHT22;2549;52.128;21.068;2023-02-01T18:24:17;8.00;99.70
5061;DHT22;2549;52.128;21.068;2023-02-01T18:26:44;8.00;99.70
5061;DHT22;2549;52.128;21.068;2023-02-01T18:29:11;8.00;99.70
5061;DHT22;2549;52.128;21.068;2023-02-01T18:31:45;8.00;99.90
5061;DHT22;2549;52.128;21.068;2023-02-01T18:34:12;8.00;99.90
5061;DHT22;2549;52.128;21.068;2023-02-01T18:36:50;7.90;99.90
5061;DHT22;2549;52.128;21.068;2023-02-01T18:39:17;7.80;99.90
5061;DHT22;2549;52.128;21.068;2023-02-01T18:41:45;7.80;99.90
5061;DHT22;2549;52.128;21.068;2023-02-01T18:44:14;7.90;99.90
5061;DHT22;2549;52.128;21.068;2023-02-01T18:46:42;7.80;99.90
5061;DHT22;2549;52.128;21.068;2023-02-01T18:49:09;7.80;99.90
5061;DHT22;2549;52.128;21.068;2023-02-01T18:51:39;7.80;99.90
5061;DHT22;2549;52.128;21.068;2023-02-01T18:54:08;7.90;99.90
5061;DHT22;2549;52.128;21.068;2023-02-01T18:56:36;7.90;99.90
5061;DHT22;2549;52.128;21.068;2023-02-01T18:59:03;7.90;99.90
5061;DHT22;2549;52.128;21.068;2023-02-01T19:01:30;7.80;99.90
5061;DHT22;2549;52.128;21.068;2023-02-01T19:03:56;7.90;99.90
5061;DHT22;2549;52.128;21.068;2023-02-01T19:06:41;7.90;99.90
5061;DHT22;2549;52.128;21.068;2023-02-01T19:09:08;7.90;99.90
5061;DHT22;2549;52.128;21.068;2023-02-01T19:11:35;8.00;99.90
5061;DHT22;2549;52.128;21.068;2023-02-01T19:14:02;8.00;99.90
5061;DHT22;2549;52.128;21.068;2023-02-01T19:16:29;8.00;99.90